首页
METAR-TAF:

METAR-TAF

机场 :

喬治·布什洲際機場

休斯敦, 得克萨斯州, 美国

纬度: 29-59-33N, 经度: 095-21-50W, 海拔: 29米

当前天气观测

该预报发布于57分钟前的05:53 UTC
风速4节,风向西南
温度 28°C
湿度 84%
气压 1016 hPa
能見度: 16.1公里
少量云层高于25000英尺

METAR: KIAH 180553Z 22004KT 10SM FEW250 28/25 A3001 RMK AO2 SLP160 T02830250 10350 20283 403560250 50001

时间: 01:50 (06:50 UTC)

预报

该预报发布于1小时和30分钟前的05:20 UTC
预报有效从18日的 06点(UTC)到 19日的 12点(UTC)
风速6节,风向南转西南
能見度: 10公里
少量云层高于25000英尺
从 18日的 1500点(UTC)
风速7节,风向西转西南
能見度: 10公里
散云层高于2500英尺
从 18日的 2300点(UTC)
风速7节,风向
能見度: 10公里
少量云层高于5000英尺

TAF: KIAH 180520Z 1806/1912 20006KT P6SM FEW250 FM181500 24007KT P6SM SCT025 FM182300 18007KT P6SM FEW050

超过4000个机场的气象观测和天气预报(METAR&TAF报告)。

可查询的气象台以黄色和红色小点在地图上表示。

将鼠标移到小点上方,可查看气象台名称。

然后点击查看天气观测和预报。

如需切换地图:点击带黑十字的绿色按钮放大地图;点击带横线的绿色按钮缩小地图;或者点击绿色箭头查看邻近地区的地图。


METAR-TAF: